createdAt,value
2019-05-30T05:32:12.528Z,99.90
2019-05-30T07:42:56.071Z,99.90
2019-05-30T07:45:28.912Z,99.90
2019-05-30T07:48:00.624Z,99.90
2019-05-30T07:50:32.672Z,99.90
2019-05-30T07:53:04.184Z,99.90
2019-05-30T07:55:35.582Z,99.90
2019-05-30T07:58:06.493Z,99.90
2019-05-30T08:00:37.697Z,99.90
2019-05-30T08:03:09.084Z,99.90
2019-05-30T08:05:40.801Z,99.90
2019-05-30T08:08:12.309Z,99.90
2019-05-30T08:10:44.374Z,99.90
2019-05-30T08:13:15.484Z,99.90
2019-05-30T08:15:47.013Z,99.90
2019-05-30T08:18:18.747Z,99.90
2019-05-30T08:20:49.511Z,99.90
2019-05-30T08:23:21.036Z,99.90
2019-05-30T08:25:52.147Z,99.90
2019-05-30T08:28:23.974Z,99.90
2019-05-30T08:30:56.975Z,99.90
2019-05-30T08:33:29.540Z,99.90
2019-05-30T08:36:05.391Z,99.90
2019-05-30T08:38:35.328Z,99.90
2019-05-30T08:41:08.926Z,99.90
2019-05-30T08:43:40.061Z,99.90
2019-05-30T08:46:11.376Z,99.90
2019-05-30T08:48:42.739Z,99.90
2019-05-30T08:51:13.860Z,99.90
2019-05-30T08:53:45.299Z,99.90
2019-05-30T08:56:17.148Z,99.90
2019-05-30T08:58:48.752Z,99.90
2019-05-30T09:01:21.492Z,99.90
2019-05-30T09:03:52.493Z,99.90
2019-05-30T09:06:24.521Z,99.90
2019-05-30T09:08:57.357Z,99.90
2019-05-30T09:11:28.457Z,99.90
2019-05-30T09:13:59.720Z,99.90
2019-05-30T09:16:31.072Z,99.90
2019-05-30T09:19:02.792Z,99.90
2019-05-30T09:21:34.602Z,99.90
2019-05-30T09:51:47.006Z,99.90
2019-05-30T10:47:04.616Z,98.60
2019-05-30T10:49:36.345Z,91.50
2019-05-30T10:52:08.263Z,91.80
2019-05-30T10:54:39.787Z,90.90
2019-05-30T10:57:11.156Z,91.00
2019-05-30T10:59:43.007Z,92.00
2019-05-30T11:02:13.759Z,91.80
2019-05-30T11:04:45.934Z,92.20
2019-05-30T11:07:28.608Z,90.60
2019-05-30T11:10:06.744Z,91.20
2019-05-30T11:12:38.662Z,92.00
2019-05-30T11:15:10.378Z,92.00
2019-05-30T11:17:41.823Z,90.60
2019-05-30T11:20:14.837Z,91.90
2019-05-30T11:22:46.290Z,90.20
2019-05-30T11:25:17.644Z,89.30
2019-05-30T11:27:50.573Z,90.20
2019-05-30T11:30:23.174Z,88.40
2019-05-30T11:32:55.204Z,89.50
2019-05-30T11:35:26.765Z,90.20
2019-05-30T11:37:59.257Z,90.00
2019-05-30T11:40:31.220Z,91.70
2019-05-30T11:43:02.257Z,92.00
2019-05-30T11:45:33.407Z,91.60
2019-05-30T11:48:05.568Z,91.80
2019-05-30T11:50:36.626Z,90.70
2019-05-30T11:53:07.716Z,90.80
2019-05-30T11:55:40.103Z,91.80
2019-05-30T11:58:11.544Z,90.80
2019-05-30T12:00:42.282Z,90.20
2019-05-30T12:03:13.339Z,90.70
2019-05-30T12:05:44.792Z,91.10
2019-05-30T12:08:16.572Z,89.80
2019-05-30T12:10:47.933Z,90.00
2019-05-30T12:13:19.084Z,87.50
2019-05-30T12:15:51.302Z,91.20
2019-05-30T12:18:22.529Z,89.60
2019-05-30T12:21:09.319Z,88.10
2019-05-30T12:23:40.918Z,90.60
2019-05-30T12:26:12.454Z,87.20
2019-05-30T12:28:43.838Z,89.00
2019-05-30T12:31:15.595Z,89.60
2019-05-30T12:33:47.380Z,90.50
2019-05-30T12:36:19.728Z,89.90
2019-05-30T12:38:52.221Z,88.50
2019-05-30T12:41:23.967Z,89.00
2019-05-30T12:43:55.071Z,88.90
2019-05-30T12:46:26.460Z,87.80
2019-05-30T12:48:57.696Z,87.20
2019-05-30T12:51:28.701Z,89.30
2019-05-30T12:54:00.460Z,90.40
2019-05-30T12:56:32.443Z,90.50
2019-05-30T12:59:03.495Z,87.20
2019-05-30T13:01:34.897Z,86.30
2019-05-30T13:04:07.644Z,88.10
2019-05-30T13:06:38.692Z,88.60
2019-05-30T13:09:10.240Z,86.90
2019-05-30T13:11:41.972Z,90.10
2019-05-30T13:14:13.719Z,90.80
2019-05-30T13:16:44.771Z,91.30
2019-05-30T13:19:15.893Z,91.70
2019-05-30T13:21:47.437Z,91.40
2019-05-30T13:24:19.170Z,91.50
2019-05-30T13:26:51.674Z,91.20
2019-05-30T13:29:23.105Z,91.10
2019-05-30T13:31:54.513Z,91.90
2019-05-30T13:34:27.829Z,91.80
2019-05-30T13:36:59.500Z,91.70
2019-05-30T13:39:30.483Z,91.10
2019-05-30T13:42:01.675Z,89.10
2019-05-30T13:44:33.692Z,89.10
2019-05-30T13:47:04.607Z,89.80
2019-05-30T13:49:37.525Z,88.60
2019-05-30T13:52:24.074Z,87.90
2019-05-30T13:54:55.585Z,90.20
2019-05-30T13:57:27.744Z,89.10
2019-05-30T13:59:59.624Z,86.60
2019-05-30T14:02:31.473Z,86.40
2019-05-30T14:05:08.187Z,87.40
2019-05-30T14:07:39.373Z,86.90
2019-05-30T14:10:11.669Z,87.30
2019-05-30T14:12:43.544Z,87.50
2019-05-30T14:15:15.860Z,85.60
2019-05-30T14:17:47.840Z,85.40
2019-05-30T14:20:20.038Z,86.30
2019-05-30T14:22:50.836Z,87.50
2019-05-30T14:25:21.993Z,88.10
2019-05-30T14:27:54.094Z,89.20
2019-05-30T14:30:25.808Z,88.80
2019-05-30T14:32:56.530Z,87.80
2019-05-30T14:35:28.300Z,90.10
2019-05-30T14:38:00.079Z,90.50
2019-05-30T14:40:31.808Z,90.50
2019-05-30T14:43:03.263Z,90.30
2019-05-30T14:45:35.208Z,91.30
2019-05-30T14:48:06.752Z,91.10
2019-05-30T14:50:38.218Z,90.40
2019-05-30T14:53:10.849Z,87.80
2019-05-30T14:55:42.602Z,88.30
2019-05-30T14:58:14.504Z,89.70
2019-05-30T15:00:46.359Z,90.20
2019-05-30T15:03:17.615Z,90.10
2019-05-30T15:05:48.789Z,90.10
2019-05-30T15:08:20.140Z,88.30
2019-05-30T15:10:51.250Z,88.50
2019-05-30T15:13:22.127Z,88.40
2019-05-30T15:15:57.043Z,87.20
2019-05-30T15:18:27.385Z,88.60
2019-05-30T15:20:59.020Z,90.20
2019-05-30T15:23:30.480Z,89.80
2019-05-30T15:26:01.921Z,90.20
2019-05-30T15:28:34.604Z,89.80
2019-05-30T15:31:06.742Z,90.00
2019-05-30T15:33:38.856Z,89.50
2019-05-30T15:36:10.699Z,90.00
2019-05-30T15:38:42.605Z,90.00
2019-05-30T15:41:15.254Z,90.00
2019-05-30T15:43:46.785Z,90.90
2019-05-30T15:46:18.905Z,90.80
2019-05-30T15:48:51.056Z,90.70
2019-05-30T15:51:23.520Z,88.90
2019-05-30T15:53:56.020Z,89.50
2019-05-30T15:56:27.697Z,90.20
2019-05-30T15:58:59.900Z,90.70
2019-05-30T16:01:31.328Z,90.00
2019-05-30T16:04:02.669Z,90.30
2019-05-30T16:06:33.865Z,89.90
2019-05-30T16:09:06.473Z,90.30
2019-05-30T17:27:10.645Z,90.60
2019-05-30T17:29:42.480Z,96.30
2019-05-30T17:32:20.010Z,96.70
2019-05-30T17:34:51.793Z,97.20
2019-05-30T17:37:24.573Z,97.50
2019-05-30T17:39:55.430Z,97.40
2019-05-30T17:42:27.009Z,97.30
2019-05-30T17:44:59.311Z,97.50
2019-05-30T17:47:30.788Z,97.50
2019-05-30T17:50:02.731Z,97.10
2019-05-30T17:52:35.698Z,98.70
2019-05-30T17:55:07.565Z,98.00
2019-05-30T17:57:39.086Z,98.80
2019-05-30T18:00:10.667Z,98.70
2019-05-30T18:02:42.029Z,98.20
2019-05-30T18:05:14.843Z,98.90
2019-05-30T18:07:45.899Z,99.30
2019-05-30T18:10:17.648Z,99.20
2019-05-30T18:12:49.044Z,99.60
2019-05-30T18:15:28.959Z,98.60
2019-05-30T18:18:00.037Z,98.90
2019-05-30T18:20:35.649Z,99.90
2019-05-30T18:23:04.439Z,99.90
2019-05-30T18:25:37.075Z,99.90
2019-05-30T18:28:08.496Z,99.90
2019-05-30T18:38:10.919Z,99.90
2019-05-30T18:40:42.467Z,99.90
2019-05-30T18:43:14.221Z,99.90
2019-05-30T18:45:46.315Z,99.90
2019-05-30T18:48:17.979Z,99.90
2019-05-30T18:50:49.569Z,99.90
2019-05-30T18:53:21.997Z,99.90
2019-05-30T18:55:53.130Z,99.90
2019-05-30T19:26:12.588Z,99.90
2019-05-30T19:28:44.319Z,99.90
2019-05-30T19:31:15.867Z,99.90
